createdAt,value
2022-12-11T00:00:05.052Z,4.37
2022-12-11T00:02:31.951Z,4.34
2022-12-11T00:04:58.423Z,4.39
2022-12-11T00:07:25.609Z,4.50
2022-12-11T00:09:52.423Z,4.47
2022-12-11T00:12:18.902Z,4.60
2022-12-11T00:14:45.352Z,4.51
2022-12-11T00:17:11.865Z,4.64
2022-12-11T00:19:38.345Z,4.65
2022-12-11T00:22:04.781Z,4.68
2022-12-11T00:24:31.210Z,4.76
2022-12-11T00:26:57.669Z,4.69
2022-12-11T00:29:24.109Z,5.18
2022-12-11T00:31:50.640Z,4.71
2022-12-11T00:34:17.208Z,4.54
2022-12-11T00:36:43.689Z,4.61
2022-12-11T00:39:10.129Z,4.56
2022-12-11T00:41:36.623Z,4.50
2022-12-11T00:44:03.132Z,4.41
2022-12-11T00:46:29.673Z,4.32
2022-12-11T00:48:56.105Z,4.41
2022-12-11T00:51:22.570Z,4.48
2022-12-11T00:53:49.041Z,4.32
2022-12-11T00:56:17.308Z,4.32
2022-12-11T00:58:44.198Z,4.54
2022-12-11T01:01:11.800Z,4.44
2022-12-11T01:03:38.384Z,4.47
2022-12-11T01:06:05.540Z,4.49
2022-12-11T01:08:38.147Z,4.32
2022-12-11T01:11:07.340Z,4.63
2022-12-11T01:13:33.800Z,4.57
2022-12-11T01:16:00.242Z,4.90
2022-12-11T01:18:26.800Z,4.49
2022-12-11T01:20:53.288Z,4.59
2022-12-11T01:23:19.756Z,4.70
2022-12-11T01:25:46.184Z,4.58
2022-12-11T01:28:12.630Z,4.42
2022-12-11T01:30:40.822Z,4.60
2022-12-11T01:33:07.330Z,4.56
2022-12-11T01:35:33.956Z,4.76
2022-12-11T01:38:00.397Z,4.74
2022-12-11T01:40:26.908Z,4.73
2022-12-11T01:42:53.364Z,4.69
2022-12-11T01:45:31.337Z,4.60
2022-12-11T01:48:03.793Z,4.55
2022-12-11T01:50:31.769Z,4.56
2022-12-11T01:52:58.493Z,4.55
2022-12-11T01:55:25.245Z,4.58
2022-12-11T01:57:52.390Z,4.62
2022-12-11T02:00:19.746Z,4.74
2022-12-11T02:02:46.328Z,4.82
2022-12-11T02:05:13.194Z,4.84
2022-12-11T02:07:59.376Z,4.73
2022-12-11T02:10:31.749Z,4.85
2022-12-11T02:13:06.525Z,5.02
2022-12-11T02:15:35.765Z,4.78
2022-12-11T02:18:26.295Z,4.87
2022-12-11T02:20:58.708Z,4.93
2022-12-11T02:23:31.304Z,4.91
2022-12-11T02:26:12.832Z,4.94
2022-12-11T02:28:42.102Z,4.95
2022-12-11T02:31:27.152Z,4.84
2022-12-11T02:34:01.081Z,4.63
2022-12-11T02:36:30.434Z,4.77
2022-12-11T02:38:58.398Z,4.95
2022-12-11T02:41:26.204Z,4.88
2022-12-11T02:43:53.768Z,4.38
2022-12-11T02:46:21.623Z,4.79
2022-12-11T02:48:49.907Z,4.94
2022-12-11T02:51:17.101Z,4.75
2022-12-11T02:53:44.978Z,4.78
2022-12-11T02:56:18.851Z,4.92
2022-12-11T02:58:47.707Z,4.67
2022-12-11T03:01:14.339Z,4.81
2022-12-11T03:03:40.862Z,4.96
2022-12-11T03:06:09.263Z,4.60
2022-12-11T03:08:36.177Z,4.88
2022-12-11T03:11:02.639Z,4.89
2022-12-11T03:13:29.060Z,4.55
2022-12-11T03:15:55.478Z,4.86
2022-12-11T03:18:36.065Z,5.01
2022-12-11T03:21:02.487Z,5.09
2022-12-11T03:23:28.898Z,5.06
2022-12-11T03:26:01.280Z,5.02
2022-12-11T03:28:31.948Z,4.73
2022-12-11T03:31:01.304Z,4.92
2022-12-11T03:33:32.399Z,4.93
2022-12-11T03:36:06.087Z,5.05
2022-12-11T03:38:35.541Z,4.87
2022-12-11T03:41:02.453Z,4.69
2022-12-11T03:43:29.845Z,5.05
2022-12-11T03:45:57.032Z,4.97
2022-12-11T03:48:25.385Z,4.57
2022-12-11T03:50:52.385Z,4.61
2022-12-11T03:53:19.105Z,4.87
2022-12-11T03:55:46.217Z,4.82
2022-12-11T03:58:12.781Z,4.71
2022-12-11T04:00:39.464Z,4.61
2022-12-11T04:03:16.023Z,4.55
2022-12-11T04:05:47.419Z,4.35
2022-12-11T04:08:14.258Z,4.50
2022-12-11T04:10:41.159Z,4.50
2022-12-11T04:13:08.173Z,4.55
2022-12-11T04:15:35.160Z,4.53
2022-12-11T04:18:20.499Z,4.54
2022-12-11T04:21:05.473Z,4.51
2022-12-11T04:23:50.352Z,4.50
2022-12-11T04:26:17.791Z,4.62
2022-12-11T04:28:45.032Z,4.54
2022-12-11T04:31:12.482Z,4.57
2022-12-11T04:33:39.460Z,4.43
2022-12-11T04:36:06.178Z,4.37
2022-12-11T04:38:32.666Z,4.42
2022-12-11T04:41:04.458Z,4.29
2022-12-11T04:43:31.018Z,4.46
2022-12-11T04:46:05.180Z,4.76
2022-12-11T04:48:31.763Z,4.59
2022-12-11T04:50:58.540Z,4.21
2022-12-11T04:53:25.374Z,5.05
2022-12-11T04:55:52.021Z,4.79
2022-12-11T04:58:18.484Z,4.36
2022-12-11T05:00:44.957Z,4.26
2022-12-11T05:03:11.506Z,4.21
2022-12-11T05:05:39.838Z,4.31
2022-12-11T05:08:06.391Z,4.34
2022-12-11T05:10:32.906Z,4.39
2022-12-11T05:12:59.349Z,4.49
2022-12-11T05:15:25.783Z,4.07
2022-12-11T05:17:52.446Z,4.25
2022-12-11T05:20:18.910Z,4.31
2022-12-11T05:22:45.363Z,4.35
2022-12-11T05:25:12.058Z,4.40
2022-12-11T05:27:38.704Z,4.31
2022-12-11T05:30:05.573Z,4.21
2022-12-11T05:32:31.995Z,3.94
2022-12-11T05:34:58.450Z,4.24
2022-12-11T05:37:24.900Z,3.99
2022-12-11T05:39:51.384Z,4.15
2022-12-11T05:42:18.154Z,4.07
2022-12-11T05:44:44.617Z,4.13
2022-12-11T05:47:11.040Z,4.25
2022-12-11T05:49:37.587Z,4.04
2022-12-11T05:52:04.098Z,4.02
2022-12-11T05:54:30.580Z,3.85
2022-12-11T05:56:57.000Z,3.98
2022-12-11T05:59:23.428Z,4.13
2022-12-11T06:01:49.930Z,4.32
2022-12-11T06:04:16.409Z,4.30
2022-12-11T06:06:43.837Z,4.77
2022-12-11T06:09:14.360Z,4.47
2022-12-11T06:11:40.849Z,4.71
2022-12-11T06:14:07.297Z,4.40
2022-12-11T06:16:34.040Z,4.71
2022-12-11T06:19:00.688Z,4.44
2022-12-11T06:21:28.349Z,4.67
2022-12-11T06:23:55.557Z,4.81
2022-12-11T06:26:22.594Z,4.75
2022-12-11T06:28:49.340Z,4.65
2022-12-11T06:31:15.987Z,4.54
2022-12-11T06:33:42.550Z,4.87
2022-12-11T06:36:10.619Z,4.88
2022-12-11T06:38:37.773Z,5.00
2022-12-11T06:41:05.055Z,4.64
2022-12-11T06:43:31.962Z,4.64
2022-12-11T06:46:03.850Z,4.67
2022-12-11T06:48:31.040Z,4.59
2022-12-11T06:50:57.865Z,4.54
2022-12-11T06:53:24.329Z,4.65
2022-12-11T06:55:50.784Z,4.70
2022-12-11T06:58:17.248Z,4.70
2022-12-11T07:00:43.805Z,4.63
2022-12-11T07:03:10.393Z,4.56
2022-12-11T07:05:36.889Z,4.63
2022-12-11T07:08:03.463Z,4.82
2022-12-11T07:10:30.024Z,4.72
2022-12-11T07:12:56.545Z,4.68
2022-12-11T07:15:23.014Z,4.73
2022-12-11T07:17:49.442Z,4.70
2022-12-11T07:20:17.172Z,4.76
2022-12-11T07:22:46.640Z,4.67
2022-12-11T07:25:13.679Z,4.69
2022-12-11T07:27:41.511Z,4.58
2022-12-11T07:30:08.425Z,4.65
2022-12-11T07:32:34.913Z,4.68
2022-12-11T07:35:01.372Z,4.83
2022-12-11T07:37:27.923Z,4.91
2022-12-11T07:39:54.654Z,4.63
2022-12-11T07:42:21.133Z,4.90
2022-12-11T07:44:47.582Z,4.84
2022-12-11T07:47:13.978Z,4.78
2022-12-11T07:49:40.459Z,5.01
2022-12-11T07:52:06.950Z,5.04
2022-12-11T07:54:33.404Z,5.15
2022-12-11T07:56:59.830Z,5.07
2022-12-11T07:59:26.331Z,5.02
2022-12-11T08:01:52.844Z,5.24
2022-12-11T08:04:19.453Z,5.26
2022-12-11T08:06:45.869Z,5.22
2022-12-11T08:09:19.106Z,5.26
2022-12-11T08:11:48.548Z,5.49
2022-12-11T08:14:14.965Z,5.46
2022-12-11T08:16:43.123Z,5.46
2022-12-11T08:19:11.146Z,5.41
2022-12-11T08:21:38.149Z,5.39
2022-12-11T08:24:04.950Z,5.43
2022-12-11T08:26:32.018Z,5.64
2022-12-11T08:28:58.749Z,5.13
2022-12-11T08:31:25.231Z,5.58
2022-12-11T08:33:51.769Z,5.65
2022-12-11T08:36:19.875Z,5.73
2022-12-11T08:38:46.840Z,5.80
2022-12-11T08:41:21.483Z,5.73
2022-12-11T08:43:49.241Z,6.01
2022-12-11T08:46:15.846Z,6.01
2022-12-11T08:48:42.898Z,6.03
2022-12-11T08:51:12.170Z,5.62
2022-12-11T08:53:39.553Z,6.00
2022-12-11T08:56:13.340Z,6.14
2022-12-11T08:58:39.982Z,5.99
2022-12-11T09:01:14.117Z,6.17
2022-12-11T09:03:41.067Z,6.38
2022-12-11T09:06:08.900Z,5.94
2022-12-11T09:08:36.140Z,5.91
2022-12-11T09:11:06.780Z,6.09
2022-12-11T09:13:33.409Z,6.18
2022-12-11T09:16:00.487Z,6.02
2022-12-11T09:18:27.270Z,5.95
2022-12-11T09:21:04.310Z,6.04
2022-12-11T09:23:30.789Z,6.09
2022-12-11T09:25:57.444Z,6.20
2022-12-11T09:28:24.368Z,6.28
2022-12-11T09:30:51.351Z,6.48
2022-12-11T09:33:17.861Z,6.46
2022-12-11T09:35:44.377Z,6.36
2022-12-11T09:38:10.821Z,6.26
2022-12-11T09:40:42.017Z,5.95
2022-12-11T09:43:28.760Z,6.05
2022-12-11T09:45:56.244Z,5.96
2022-12-11T09:48:24.181Z,6.25
2022-12-11T09:50:53.895Z,6.44
2022-12-11T09:53:33.925Z,6.49
2022-12-11T09:56:26.979Z,6.25
2022-12-11T09:59:12.293Z,6.30
2022-12-11T10:01:38.874Z,6.21
2022-12-11T10:04:18.613Z,6.09
2022-12-11T10:06:51.093Z,6.31
2022-12-11T10:09:24.321Z,5.81
2022-12-11T10:11:58.995Z,6.22
2022-12-11T10:14:45.754Z,6.15
2022-12-11T10:17:12.249Z,5.93
2022-12-11T10:19:39.899Z,6.05
2022-12-11T10:22:12.221Z,6.05
2022-12-11T10:27:35.564Z,6.22
2022-12-11T10:30:08.145Z,6.18
2022-12-11T10:32:44.053Z,6.54
2022-12-11T10:35:17.538Z,6.39
2022-12-11T10:37:43.997Z,6.15
2022-12-11T10:40:11.623Z,6.28
2022-12-11T10:42:41.252Z,6.23
2022-12-11T10:45:16.051Z,6.20
2022-12-11T10:47:42.533Z,6.55
2022-12-11T10:50:22.473Z,6.39
2022-12-11T10:52:48.905Z,6.43
2022-12-11T10:55:15.341Z,6.46
2022-12-11T10:57:42.715Z,6.62
2022-12-11T11:00:28.057Z,6.39
2022-12-11T11:02:55.126Z,6.28
2022-12-11T11:05:29.450Z,6.54
2022-12-11T11:08:12.836Z,6.55
2022-12-11T11:10:49.841Z,6.54
2022-12-11T11:13:16.301Z,6.73
2022-12-11T11:15:43.001Z,6.70
2022-12-11T11:18:16.936Z,6.87
2022-12-11T11:20:47.896Z,6.75
2022-12-11T11:23:16.187Z,6.62
2022-12-11T11:25:50.086Z,6.72
2022-12-11T11:28:27.029Z,6.85
2022-12-11T11:30:56.231Z,6.80
2022-12-11T11:33:23.805Z,6.38
2022-12-11T11:36:03.879Z,6.55
2022-12-11T11:38:39.456Z,6.49
2022-12-11T11:41:14.650Z,6.51
2022-12-11T11:43:53.918Z,6.53
2022-12-11T11:46:23.758Z,6.60
2022-12-11T11:49:00.263Z,6.54
2022-12-11T11:51:46.291Z,6.44
2022-12-11T11:54:23.929Z,6.40
2022-12-11T11:56:51.738Z,6.39
2022-12-11T11:59:24.228Z,6.41
2022-12-11T12:01:51.837Z,6.42
2022-12-11T12:04:18.322Z,6.11
2022-12-11T12:06:57.196Z,6.55
2022-12-11T12:09:29.689Z,6.41
2022-12-11T12:12:05.355Z,6.23
2022-12-11T12:14:54.503Z,6.21
2022-12-11T12:17:23.918Z,6.26
2022-12-11T12:19:55.191Z,6.47
2022-12-11T12:22:40.431Z,6.26
2022-12-11T12:25:22.480Z,6.21
2022-12-11T12:27:53.929Z,6.39
2022-12-11T12:30:23.297Z,6.01
2022-12-11T12:33:09.124Z,5.93
2022-12-11T12:35:36.939Z,6.05
2022-12-11T12:38:06.177Z,5.97
2022-12-11T12:40:41.983Z,5.73
2022-12-11T12:43:11.634Z,5.71
2022-12-11T12:45:47.402Z,5.47
2022-12-11T12:48:13.925Z,5.55
2022-12-11T12:50:42.688Z,5.43
2022-12-11T12:53:14.098Z,5.90
2022-12-11T12:55:40.679Z,5.67
2022-12-11T12:58:07.874Z,5.48
2022-12-11T13:00:42.428Z,5.14
2022-12-11T13:03:13.917Z,5.39
2022-12-11T13:05:42.107Z,5.53
2022-12-11T13:08:09.868Z,5.41
2022-12-11T13:10:37.720Z,5.36
2022-12-11T13:13:05.153Z,5.38
2022-12-11T13:15:43.650Z,5.57
2022-12-11T13:18:28.930Z,5.63
2022-12-11T13:20:55.341Z,5.58
2022-12-11T13:23:32.704Z,5.34
2022-12-11T13:26:00.296Z,5.42
2022-12-11T13:28:28.494Z,5.32
2022-12-11T13:31:00.990Z,5.31
2022-12-11T13:33:29.992Z,5.22
2022-12-11T13:36:15.730Z,5.11
2022-12-11T13:38:49.389Z,4.82
2022-12-11T13:41:16.591Z,4.99
2022-12-11T13:43:46.482Z,4.81
2022-12-11T13:46:15.046Z,4.84
2022-12-11T13:48:47.883Z,4.66
2022-12-11T13:51:18.956Z,4.64
2022-12-11T13:53:45.417Z,4.61
2022-12-11T13:56:21.906Z,4.54
2022-12-11T13:58:48.861Z,4.63
2022-12-11T14:01:17.167Z,4.32
2022-12-11T14:03:48.723Z,4.14
2022-12-11T14:06:18.807Z,4.30
2022-12-11T14:08:48.039Z,4.19
2022-12-11T14:11:37.921Z,4.30
2022-12-11T14:14:06.650Z,3.99
2022-12-11T14:16:33.457Z,3.87
2022-12-11T14:19:05.898Z,3.77
2022-12-11T14:21:32.349Z,3.44
2022-12-11T14:24:00.167Z,3.78
2022-12-11T14:26:30.368Z,3.64
2022-12-11T14:28:57.012Z,3.70
2022-12-11T14:31:26.496Z,3.60
2022-12-11T14:33:55.734Z,3.70
2022-12-11T14:36:22.880Z,3.58
2022-12-11T14:38:55.337Z,3.60
2022-12-11T14:41:25.126Z,3.61
2022-12-11T14:43:54.281Z,3.46
2022-12-11T14:46:23.702Z,3.38
2022-12-11T14:49:00.602Z,3.52
2022-12-11T14:51:30.010Z,3.46
2022-12-11T14:53:56.547Z,3.37
2022-12-11T14:56:25.614Z,3.25
2022-12-11T14:59:00.341Z,3.42
2022-12-11T15:01:31.182Z,3.58
2022-12-11T15:04:16.153Z,3.28
2022-12-11T15:06:47.288Z,3.57
2022-12-11T15:09:32.621Z,3.08
2022-12-11T15:12:07.616Z,2.71
2022-12-11T15:14:34.294Z,2.96
2022-12-11T15:17:00.781Z,3.12
2022-12-11T15:19:31.680Z,3.15
2022-12-11T15:22:05.517Z,3.19
2022-12-11T15:24:40.348Z,3.00
2022-12-11T15:27:23.869Z,3.02
2022-12-11T15:29:50.377Z,3.21
2022-12-11T15:32:19.170Z,3.37
2022-12-11T15:34:53.328Z,2.89
2022-12-11T15:37:22.940Z,2.62
2022-12-11T15:39:49.421Z,1.96
2022-12-11T15:42:17.996Z,2.60
2022-12-11T15:44:44.644Z,2.60
2022-12-11T15:47:11.872Z,2.54
2022-12-11T15:49:38.314Z,2.49
2022-12-11T15:52:04.901Z,2.55
2022-12-11T15:54:31.458Z,2.56
2022-12-11T15:56:59.397Z,2.52
2022-12-11T15:59:25.901Z,2.60
2022-12-11T16:01:52.364Z,2.27
2022-12-11T16:04:18.943Z,2.22
2022-12-11T16:06:46.854Z,2.06
2022-12-11T16:09:13.568Z,1.70
2022-12-11T16:11:39.977Z,1.83
2022-12-11T16:14:06.409Z,1.99
2022-12-11T16:16:33.897Z,1.57
2022-12-11T16:19:00.775Z,1.55
2022-12-11T16:21:27.261Z,1.28
2022-12-11T16:23:53.705Z,1.16
2022-12-11T16:26:20.291Z,1.42
2022-12-11T16:28:46.755Z,1.59
2022-12-11T16:31:14.168Z,1.70
2022-12-11T16:33:40.732Z,1.81
2022-12-11T16:36:14.265Z,1.71
2022-12-11T16:38:40.829Z,1.74
2022-12-11T16:41:07.247Z,1.84
2022-12-11T16:43:33.736Z,1.78
2022-12-11T16:46:00.206Z,1.65
2022-12-11T16:48:26.703Z,1.83
2022-12-11T16:50:54.424Z,1.67
2022-12-11T16:53:21.085Z,1.58
2022-12-11T16:55:47.585Z,1.57
2022-12-11T16:58:19.955Z,1.74
2022-12-11T17:00:47.274Z,1.52
2022-12-11T17:03:14.193Z,1.44
2022-12-11T17:05:41.370Z,1.67
2022-12-11T17:08:08.306Z,1.60
2022-12-11T17:10:38.523Z,1.38
2022-12-11T17:13:04.957Z,1.43
2022-12-11T17:15:31.478Z,1.25
2022-12-11T17:17:58.021Z,1.42
2022-12-11T17:20:24.432Z,1.64
2022-12-11T17:22:50.902Z,1.39
2022-12-11T17:25:22.214Z,1.07
2022-12-11T17:27:49.408Z,1.08
2022-12-11T17:30:15.914Z,1.29
2022-12-11T17:32:46.690Z,1.38
2022-12-11T17:35:13.748Z,1.44
2022-12-11T17:37:40.509Z,1.23
2022-12-11T17:40:07.137Z,1.31
2022-12-11T17:42:33.666Z,1.24
2022-12-11T17:45:00.104Z,1.35
2022-12-11T17:47:26.592Z,1.32
2022-12-11T17:49:53.129Z,1.38
2022-12-11T17:52:19.714Z,1.36
2022-12-11T17:54:46.201Z,1.33
2022-12-11T17:57:12.679Z,1.26
2022-12-11T17:59:39.153Z,1.41
2022-12-11T18:02:06.160Z,1.29
2022-12-11T18:04:32.596Z,1.34
2022-12-11T18:06:59.081Z,1.43
2022-12-11T18:09:25.545Z,1.31
2022-12-11T18:11:52.117Z,1.51
2022-12-11T18:14:18.538Z,1.35
2022-12-11T18:16:45.033Z,1.18
2022-12-11T18:19:12.134Z,1.25
2022-12-11T18:21:41.313Z,1.40
2022-12-11T18:24:08.748Z,1.42
2022-12-11T18:26:35.926Z,1.49
2022-12-11T18:29:02.377Z,1.38
2022-12-11T18:31:29.362Z,1.33
2022-12-11T18:33:55.972Z,1.31
2022-12-11T18:36:22.461Z,1.36
2022-12-11T18:38:49.030Z,1.33
2022-12-11T18:41:16.528Z,1.37
2022-12-11T18:43:43.312Z,1.37
2022-12-11T18:46:11.084Z,1.40
2022-12-11T18:48:37.597Z,1.36
2022-12-11T18:51:09.104Z,1.51
2022-12-11T18:53:36.286Z,1.51
2022-12-11T18:56:05.550Z,1.55
2022-12-11T18:58:31.976Z,1.51
2022-12-11T19:00:58.643Z,1.51
2022-12-11T19:03:25.112Z,1.54
2022-12-11T19:05:51.563Z,1.52
2022-12-11T19:08:18.210Z,1.54
2022-12-11T19:10:45.969Z,1.38
2022-12-11T19:13:13.108Z,1.29
2022-12-11T19:15:40.529Z,1.53
2022-12-11T19:18:07.214Z,1.57
2022-12-11T19:20:49.209Z,1.39
2022-12-11T19:23:17.510Z,1.41
2022-12-11T19:25:45.241Z,1.33
2022-12-11T19:28:12.134Z,1.35
2022-12-11T19:30:42.970Z,1.43
2022-12-11T19:33:09.545Z,1.42
2022-12-11T19:35:36.455Z,1.27
2022-12-11T19:38:03.160Z,1.23
2022-12-11T19:40:29.606Z,1.26
2022-12-11T19:42:56.085Z,1.24
2022-12-11T19:45:22.678Z,1.23
2022-12-11T19:47:49.102Z,1.22
2022-12-11T19:50:15.670Z,1.19
2022-12-11T19:52:46.188Z,1.21
2022-12-11T19:55:14.938Z,1.06
2022-12-11T19:57:41.466Z,1.33
2022-12-11T20:00:08.236Z,1.14
2022-12-11T20:02:38.756Z,1.19
2022-12-11T20:05:05.588Z,1.11
2022-12-11T20:07:32.024Z,1.14
2022-12-11T20:10:00.141Z,1.07
2022-12-11T20:12:26.629Z,1.10
2022-12-11T20:14:53.068Z,1.09
2022-12-11T20:17:19.581Z,1.09
2022-12-11T20:19:46.156Z,1.00
2022-12-11T20:22:12.634Z,1.03
2022-12-11T20:24:39.120Z,1.01
2022-12-11T20:27:05.639Z,1.10
2022-12-11T20:29:32.075Z,1.09
2022-12-11T20:32:00.336Z,1.08
2022-12-11T20:34:27.081Z,1.12
2022-12-11T20:36:54.099Z,0.76
2022-12-11T20:39:20.612Z,1.10
2022-12-11T20:41:47.148Z,1.12
2022-12-11T20:44:13.644Z,0.83
2022-12-11T20:46:40.791Z,0.73
2022-12-11T20:49:12.644Z,0.64
2022-12-11T20:51:39.659Z,0.79
2022-12-11T20:54:06.360Z,0.75
2022-12-11T20:56:32.915Z,0.76
2022-12-11T20:59:00.011Z,0.60
2022-12-11T21:01:29.436Z,0.80
2022-12-11T21:03:56.337Z,0.65
2022-12-11T21:06:28.355Z,0.68
2022-12-11T21:08:54.868Z,0.66
2022-12-11T21:11:21.648Z,0.72
2022-12-11T21:13:49.923Z,0.89
2022-12-11T21:16:17.545Z,0.28
2022-12-11T21:18:46.307Z,0.18
2022-12-11T21:21:12.938Z,0.30
2022-12-11T21:23:39.465Z,-0.02
2022-12-11T21:26:05.917Z,-0.11
2022-12-11T21:28:35.528Z,-0.12
2022-12-11T21:31:04.849Z,-0.12
2022-12-11T21:33:31.382Z,-0.06
2022-12-11T21:35:58.243Z,0.06
2022-12-11T21:38:25.088Z,0.09
2022-12-11T21:40:52.413Z,-0.14
2022-12-11T21:43:19.071Z,-0.22
2022-12-11T21:46:05.059Z,-0.18
2022-12-11T21:48:31.816Z,0.05
2022-12-11T21:51:18.838Z,0.06
2022-12-11T21:53:45.629Z,0.09
2022-12-11T21:56:13.584Z,0.29
2022-12-11T21:58:41.080Z,0.60
2022-12-11T22:01:13.354Z,0.37
2022-12-11T22:03:39.845Z,0.20
2022-12-11T22:06:06.472Z,0.29
2022-12-11T22:08:33.085Z,0.36
2022-12-11T22:11:01.121Z,0.49
2022-12-11T22:13:28.031Z,0.54
2022-12-11T22:15:55.112Z,0.40
2022-12-11T22:18:21.789Z,0.56
2022-12-11T22:20:48.234Z,0.40
2022-12-11T22:23:14.781Z,0.38
2022-12-11T22:25:41.251Z,0.22
2022-12-11T22:28:07.654Z,0.21
2022-12-11T22:30:34.172Z,0.55
2022-12-11T22:33:00.705Z,0.46
2022-12-11T22:35:27.607Z,0.34
2022-12-11T22:37:54.293Z,0.30
2022-12-11T22:40:20.780Z,0.48
2022-12-11T22:42:47.346Z,0.52
2022-12-11T22:45:14.285Z,0.52
2022-12-11T22:47:40.900Z,0.61
2022-12-11T22:50:07.893Z,0.64
2022-12-11T22:52:34.722Z,0.89
2022-12-11T22:55:01.305Z,0.54
2022-12-11T22:57:27.899Z,0.40
2022-12-11T22:59:54.443Z,0.48
2022-12-11T23:02:21.081Z,0.64
2022-12-11T23:04:48.055Z,0.33
2022-12-11T23:07:14.551Z,0.36
2022-12-11T23:09:41.016Z,0.50
2022-12-11T23:12:07.998Z,0.39
2022-12-11T23:14:34.432Z,0.66
2022-12-11T23:17:00.953Z,0.40
2022-12-11T23:19:27.941Z,0.28
2022-12-11T23:21:54.845Z,0.46
2022-12-11T23:24:22.418Z,0.49
2022-12-11T23:26:48.886Z,0.51
2022-12-11T23:29:15.292Z,0.43
2022-12-11T23:31:41.732Z,0.59
2022-12-11T23:34:08.193Z,0.37
2022-12-11T23:36:34.757Z,0.40
2022-12-11T23:39:01.181Z,0.45
2022-12-11T23:41:27.693Z,0.38
2022-12-11T23:43:54.218Z,0.34
2022-12-11T23:46:21.975Z,0.38
2022-12-11T23:48:48.945Z,0.42
2022-12-11T23:51:17.116Z,0.26
2022-12-11T23:53:44.010Z,0.17
2022-12-11T23:56:15.660Z,0.23
2022-12-11T23:58:42.160Z,0.21
